Observation data for Post on 02/15/2017      Previous  Date  Next       Current Mesonet Observations  Soil Data  Daily Summary Page  Observations in Plain Language
KPT1 150600Z 31011KT 04/M01 A3017 RMK A01 T00421011  RH  069%=      5-min Rain = 0
KPT1 150605Z 31011KT 04/M01 A3017 RMK A01 T00411011  RH  069%=      5-min Rain = 0
KPT1 150610Z 31010G15KT 04/M01 A3017 RMK A01 T00411012  RH  069%=      5-min Rain = 0
KPT1 150615Z 31012KT 04/M01 A3017 RMK A01 T00411012  RH  069%=      5-min Rain = 0
KPT1 150620Z 31013KT 04/M01 A3017 RMK A01 T00421012  RH  068%=      5-min Rain = 0
KPT1 150625Z 31012G17KT 04/M01 A3017 RMK A01 T00421013  RH  068%=      5-min Rain = 0
KPT1 150630Z 31012KT 04/M01 A3017 RMK A01 T00421014  RH  067%=      5-min Rain = 0
KPT1 150635Z 31013KT 04/M02 A3017 RMK A01 T00431015  RH  066%=      5-min Rain = 0
KPT1 150640Z 31013KT 04/M02 A3017 RMK A01 T00441016  RH  065%=      5-min Rain = 0
KPT1 150645Z 31013G18KT 05/M02 A3017 RMK A01 T00461017  RH  064%=      5-min Rain = 0
KPT1 150650Z 31013G18KT 05/M02 A3017 RMK A01 T00471018  RH  064%=      5-min Rain = 0
KPT1 150655Z 31013KT 05/M02 A3017 RMK A01 T00471018  RH  063%=      5-min Rain = 0
KPT1 150700Z 31013KT 05/M02 A3017 RMK A01 T00471018  RH  064%=      5-min Rain = 0
KPT1 150705Z 31013KT 05/M02 A3017 RMK A01 T00451017  RH  064%=      5-min Rain = 0
KPT1 150710Z 31014G19KT 05/M02 A3017 RMK A01 T00451017  RH  065%=      5-min Rain = 0
KPT1 150715Z 31014KT 05/M02 A3017 RMK A01 T00451017  RH  065%=      5-min Rain = 0
KPT1 150720Z 31013KT 04/M02 A3017 RMK A01 T00431017  RH  066%=      5-min Rain = 0
KPT1 150725Z 31013KT 04/M02 A3017 RMK A01 T00421017  RH  066%=      5-min Rain = 0
KPT1 150730Z 31013KT 04/M02 A3017 RMK A01 T00411017  RH  067%=      5-min Rain = 0
KPT1 150735Z 31014KT 04/M02 A3017 RMK A01 T00401017  RH  067%=      5-min Rain = 0
KPT1 150740Z 31013KT 04/M02 A3017 RMK A01 T00391017  RH  067%=      5-min Rain = 0
KPT1 150745Z 31013KT 04/M02 A3017 RMK A01 T00391018  RH  067%=      5-min Rain = 0
KPT1 150750Z 31012KT 04/M02 A3017 RMK A01 T00381019  RH  067%=      5-min Rain = 0
KPT1 150755Z 31011KT 04/M02 A3018 RMK A01 T00371019  RH  067%=      5-min Rain = 0
KPT1 150800Z 31011KT 04/M02 A3018 RMK A01 T00361019  RH  068%=      5-min Rain = 0
KPT1 150805Z 31011KT 04/M02 A3018 RMK A01 T00361019  RH  068%=      5-min Rain = 0
KPT1 150810Z 31011KT 04/M02 A3018 RMK A01 T00351019  RH  068%=      5-min Rain = 0
KPT1 150815Z 31012KT 04/M02 A3018 RMK A01 T00351020  RH  068%=      5-min Rain = 0
KPT1 150820Z 31011KT 04/M02 A3018 RMK A01 T00351020  RH  068%=      5-min Rain = 0
KPT1 150825Z 31012KT 04/M02 A3018 RMK A01 T00361021  RH  067%=      5-min Rain = 0
KPT1 150830Z 31011KT 04/M02 A3018 RMK A01 T00351021  RH  067%=      5-min Rain = 0
KPT1 150835Z 31011KT 03/M02 A3018 RMK A01 T00341022  RH  068%=      5-min Rain = 0
KPT1 150840Z 31011KT 04/M02 A3018 RMK A01 T00351022  RH  067%=      5-min Rain = 0
KPT1 150845Z 31011G16KT 04/M02 A3018 RMK A01 T00361023  RH  066%=      5-min Rain = 0
KPT1 150850Z 31010KT 04/M02 A3018 RMK A01 T00351023  RH  066%=      5-min Rain = 0
KPT1 150855Z 31010KT 04/M02 A3018 RMK A01 T00351023  RH  066%=      5-min Rain = 0
KPT1 150900Z 31011KT 04/M02 A3018 RMK A01 T00351024  RH  066%=      5-min Rain = 0
KPT1 150905Z 31011G16KT 03/M02 A3018 RMK A01 T00341024  RH  066%=      5-min Rain = 0
KPT1 150910Z 31011KT 03/M02 A3018 RMK A01 T00341024  RH  066%=      5-min Rain = 0
KPT1 150915Z 31011KT 03/M03 A3018 RMK A01 T00331025  RH  067%=      5-min Rain = 0
KPT1 150920Z 31010KT 03/M03 A3018 RMK A01 T00321025  RH  067%=      5-min Rain = 0
KPT1 150925Z 31011KT 03/M03 A3018 RMK A01 T00321025  RH  067%=      5-min Rain = 0
KPT1 150930Z 31010KT 03/M03 A3018 RMK A01 T00311025  RH  067%=      5-min Rain = 0
KPT1 150935Z 31010G15KT 03/M03 A3018 RMK A01 T00321025  RH  067%=      5-min Rain = 0
KPT1 150940Z 31010KT 03/M03 A3018 RMK A01 T00311025  RH  067%=      5-min Rain = 0
KPT1 150945Z 31010G17KT 03/M03 A3018 RMK A01 T00311026  RH  067%=      5-min Rain = 0
KPT1 150950Z 31010KT 03/M03 A3018 RMK A01 T00301026  RH  067%=      5-min Rain = 0
KPT1 150955Z 31010KT 03/M03 A3018 RMK A01 T00311026  RH  067%=      5-min Rain = 0
KPT1 151000Z 31011KT 03/M03 A3018 RMK A01 T00311027  RH  067%=      5-min Rain = 0
KPT1 151005Z 31011KT 03/M03 A3018 RMK A01 T00331027  RH  065%=      5-min Rain = 0
KPT1 151010Z 31010KT 03/M03 A3018 RMK A01 T00321028  RH  066%=      5-min Rain = 0
KPT1 151015Z 31011KT 03/M03 A3018 RMK A01 T00331028  RH  065%=      5-min Rain = 0
KPT1 151020Z 31011G16KT 03/M03 A3018 RMK A01 T00341029  RH  064%=      5-min Rain = 0
KPT1 151025Z 31010KT 03/M03 A3018 RMK A01 T00331029  RH  064%=      5-min Rain = 0
KPT1 151030Z 31010KT 03/M03 A3018 RMK A01 T00341029  RH  064%=      5-min Rain = 0
KPT1 151035Z 31010G15KT 03/M03 A3018 RMK A01 T00341029  RH  064%=      5-min Rain = 0
KPT1 151040Z 31011KT 04/M03 A3018 RMK A01 T00351030  RH  063%=      5-min Rain = 0
KPT1 151045Z 31010KT 04/M03 A3018 RMK A01 T00351030  RH  063%=      5-min Rain = 0
KPT1 151050Z 31010KT 03/M03 A3018 RMK A01 T00321029  RH  065%=      5-min Rain = 0
KPT1 151055Z 30010KT 03/M03 A3018 RMK A01 T00311028  RH  066%=      5-min Rain = 0
KPT1 151100Z 31010KT 03/M03 A3018 RMK A01 T00301028  RH  066%=      5-min Rain = 0
KPT1 151105Z 31010KT 03/M03 A3019 RMK A01 T00311028  RH  066%=      5-min Rain = 0
KPT1 151110Z 30010KT 03/M03 A3019 RMK A01 T00311028  RH  066%=      5-min Rain = 0
KPT1 151115Z 30010KT 03/M03 A3019 RMK A01 T00301028  RH  066%=      5-min Rain = 0
KPT1 151120Z 30009KT 03/M03 A3019 RMK A01 T00311028  RH  066%=      5-min Rain = 0
KPT1 151125Z 30009KT 03/M03 A3019 RMK A01 T00291027  RH  068%=      5-min Rain = 0
KPT1 151130Z 30010KT 03/M03 A3019 RMK A01 T00271026  RH  069%=      5-min Rain = 0
KPT1 151135Z 30009KT 03/M03 A3019 RMK A01 T00261026  RH  069%=      5-min Rain = 0
KPT1 151140Z 30010KT 03/M03 A3019 RMK A01 T00261026  RH  070%=      5-min Rain = 0
KPT1 151145Z 31009KT 03/M03 A3019 RMK A01 T00251026  RH  070%=      5-min Rain = 0
KPT1 151150Z 30009KT 03/M03 A3019 RMK A01 T00261026  RH  069%=      5-min Rain = 0
KPT1 151155Z 31009KT 03/M03 A3019 RMK A01 T00261026  RH  069%=      5-min Rain = 0
KPT1 151200Z 30009KT 03/M03 A3019 RMK A01 T00271026  RH  069%=      5-min Rain = 0
KPT1 151205Z 31010KT 03/M03 A3019 RMK A01 T00291027  RH  067%=      5-min Rain = 0
KPT1 151210Z 31009KT 03/M03 A3019 RMK A01 T00291028  RH  067%=      5-min Rain = 0
KPT1 151215Z 31010KT 03/M03 A3019 RMK A01 T00281027  RH  068%=      5-min Rain = 0
KPT1 151220Z 31010KT 03/M03 A3019 RMK A01 T00291028  RH  067%=      5-min Rain = 0
KPT1 151225Z 31010KT 03/M03 A3019 RMK A01 T00271028  RH  068%=      5-min Rain = 0
KPT1 151230Z 31009KT 03/M03 A3019 RMK A01 T00261028  RH  069%=      5-min Rain = 0
KPT1 151235Z 31010KT 03/M03 A302 RMK A01 T00251027  RH  069%=      5-min Rain = 0
KPT1 151240Z 31010KT 02/M03 A302 RMK A01 T00241028  RH  069%=      5-min Rain = 0
KPT1 151245Z 31010KT 02/M03 A302 RMK A01 T00241028  RH  070%=      5-min Rain = 0
KPT1 151250Z 31010KT 02/M03 A302 RMK A01 T00231027  RH  070%=      5-min Rain = 0
KPT1 151255Z 31011KT 02/M03 A302 RMK A01 T00231027  RH  070%=      5-min Rain = 0
KPT1 151300Z 31010KT 02/M03 A302 RMK A01 T00231027  RH  070%=      5-min Rain = 0
KPT1 151305Z 31010KT 02/M03 A302 RMK A01 T00221027  RH  071%=      5-min Rain = 0
KPT1 151310Z 31011KT 02/M03 A3021 RMK A01 T00221028  RH  070%=      5-min Rain = 0
KPT1 151315Z 31011KT 02/M03 A3021 RMK A01 T00231028  RH  070%=      5-min Rain = 0
KPT1 151320Z 31010KT 02/M03 A3021 RMK A01 T00221028  RH  070%=      5-min Rain = 0
KPT1 151325Z 31012KT 02/M03 A3021 RMK A01 T00221028  RH  070%=      5-min Rain = 0
KPT1 151330Z 31011KT 02/M03 A3022 RMK A01 T00221028  RH  070%=      5-min Rain = 0
KPT1 151335Z 31011KT 02/M03 A3022 RMK A01 T00221028  RH  071%=      5-min Rain = 0
KPT1 151340Z 31011KT 02/M03 A3022 RMK A01 T00221028  RH  070%=      5-min Rain = 0
KPT1 151345Z 32010KT 02/M03 A3022 RMK A01 T00211028  RH  071%=      5-min Rain = 0
KPT1 151350Z 32010KT 02/M03 A3023 RMK A01 T00211028  RH  071%=      5-min Rain = 0
KPT1 151355Z 31009KT 02/M03 A3023 RMK A01 T00221027  RH  071%=      5-min Rain = 0
KPT1 151400Z 31010KT 02/M03 A3023 RMK A01 T00241027  RH  070%=      5-min Rain = 0
KPT1 151405Z 32010KT 03/M03 A3023 RMK A01 T00251026  RH  070%=      5-min Rain = 0
KPT1 151410Z 31010KT 03/M03 A3024 RMK A01 T00271026  RH  069%=      5-min Rain = 0
KPT1 151415Z 32009KT 03/M03 A3024 RMK A01 T00281026  RH  068%=      5-min Rain = 0
KPT1 151420Z 32009KT 03/M03 A3024 RMK A01 T00301025  RH  068%=      5-min Rain = 0
KPT1 151425Z 31010KT 03/M02 A3024 RMK A01 T00331024  RH  067%=      5-min Rain = 0
KPT1 151430Z 31010KT 04/M02 A3025 RMK A01 T00361023  RH  066%=      5-min Rain = 0
KPT1 151435Z 32010KT 04/M02 A3025 RMK A01 T00381023  RH  065%=      5-min Rain = 0
KPT1 151440Z 32011KT 04/M02 A3025 RMK A01 T00401023  RH  064%=      5-min Rain = 0
KPT1 151445Z 32012KT 04/M02 A3025 RMK A01 T00411023  RH  064%=      5-min Rain = 0
KPT1 151450Z 32011G16KT 04/M02 A3025 RMK A01 T00431022  RH  063%=      5-min Rain = 0
KPT1 151455Z 32010KT 04/M02 A3025 RMK A01 T00441022  RH  063%=      5-min Rain = 0
KPT1 151500Z 32009KT 05/M02 A3026 RMK A01 T00481019  RH  062%=      5-min Rain = 0
KPT1 151505Z 33009KT 05/M02 A3026 RMK A01 T00501019  RH  062%=      5-min Rain = 0
KPT1 151510Z 33011KT 05/M02 A3026 RMK A01 T00521020  RH  061%=      5-min Rain = 0
KPT1 151515Z 33011KT 05/M02 A3026 RMK A01 T00541019  RH  060%=      5-min Rain = 0
KPT1 151520Z 33010KT 06/M02 A3026 RMK A01 T00571018  RH  059%=      5-min Rain = 0
KPT1 151525Z 33009KT 06/M02 A3027 RMK A01 T00591018  RH  058%=      5-min Rain = 0
KPT1 151530Z 33010KT 06/M02 A3027 RMK A01 T00621017  RH  058%=      5-min Rain = 0
KPT1 151535Z 33010KT 06/M02 A3027 RMK A01 T00621018  RH  057%=      5-min Rain = 0
KPT1 151540Z 34010KT 06/M02 A3027 RMK A01 T00641018  RH  056%=      5-min Rain = 0
KPT1 151545Z 33010KT 07/M02 A3027 RMK A01 T00651016  RH  057%=      5-min Rain = 0
KPT1 151550Z 34008KT 07/M01 A3027 RMK A01 T00701013  RH  056%=      5-min Rain = 0
KPT1 151555Z 35009KT 07/M02 A3027 RMK A01 T00721018  RH  054%=      5-min Rain = 0
KPT1 151600Z 34008KT 07/M01 A3027 RMK A01 T00741014  RH  054%=      5-min Rain = 0
KPT1 151605Z 34008KT 08/M02 A3027 RMK A01 T00771017  RH  052%=      5-min Rain = 0
KPT1 151610Z 35007KT 08/M02 A3027 RMK A01 T00811019  RH  050%=      5-min Rain = 0
KPT1 151615Z 35009KT 08/M02 A3027 RMK A01 T00811021  RH  049%=      5-min Rain = 0
KPT1 151620Z 35007KT 08/M02 A3028 RMK A01 T00811023  RH  048%=      5-min Rain = 0
KPT1 151625Z 34007KT 08/M02 A3028 RMK A01 T00821024  RH  048%=      5-min Rain = 0
KPT1 151630Z 01007KT 08/M02 A3028 RMK A01 T00831024  RH  047%=      5-min Rain = 0
KPT1 151635Z 01006KT 09/M02 A3028 RMK A01 T00881020  RH  047%=      5-min Rain = 0
KPT1 151640Z 36005KT 09/M02 A3028 RMK A01 T00891021  RH  046%=      5-min Rain = 0
KPT1 151645Z 02005KT 10/M02 A3028 RMK A01 T00951019  RH  045%=      5-min Rain = 0
KPT1 151650Z 36004KT 10/M02 A3028 RMK A01 T00961017  RH  046%=      5-min Rain = 0
KPT1 151655Z 36005KT 10/M02 A3028 RMK A01 T00951023  RH  044%=      5-min Rain = 0
KPT1 151700Z 01005KT 10/M02 A3028 RMK A01 T00971024  RH  043%=      5-min Rain = 0
KPT1 151705Z 01006G11KT 10/M03 A3028 RMK A01 T00981027  RH  042%=      5-min Rain = 0
KPT1 151710Z 02005KT 10/M03 A3028 RMK A01 T00971026  RH  042%=      5-min Rain = 0
KPT1 151715Z 36005KT 10/M02 A3027 RMK A01 T01021024  RH  042%=      5-min Rain = 0
KPT1 151720Z 35004KT 10/M03 A3027 RMK A01 T01011026  RH  041%=      5-min Rain = 0
KPT1 151725Z 00004KT 10/M03 A3027 RMK A01 T01031025  RH  041%=      5-min Rain = 0
KPT1 151730Z 01005KT 10/M03 A3027 RMK A01 T01041027  RH  040%=      5-min Rain = 0
KPT1 151735Z 00004KT 11/M03 A3027 RMK A01 T01061027  RH  040%=      5-min Rain = 0
KPT1 151740Z 33005KT 10/M03 A3027 RMK A01 T01041030  RH  039%=      5-min Rain = 0
KPT1 151745Z 36004KT 11/M03 A3027 RMK A01 T01071027  RH  039%=      5-min Rain = 0
KPT1 151750Z 36004KT 11/M03 A3027 RMK A01 T01081027  RH  039%=      5-min Rain = 0
KPT1 151755Z 35005KT 11/M03 A3027 RMK A01 T01101028  RH  038%=      5-min Rain = 0
KPT1 151800Z 35005KT 11/M03 A3027 RMK A01 T01081032  RH  038%=      5-min Rain = 0
KPT1 151805Z 32005G10KT 11/M03 A3026 RMK A01 T01121030  RH  038%=      5-min Rain = 0
KPT1 151810Z 00003KT 11/M03 A3026 RMK A01 T01121029  RH  038%=      5-min Rain = 0
KPT1 151815Z 01004KT 11/M03 A3026 RMK A01 T01141033  RH  036%=      5-min Rain = 0
KPT1 151820Z 34008KT 11/M04 A3026 RMK A01 T01131035  RH  036%=      5-min Rain = 0
KPT1 151825Z 33008G13KT 12/M04 A3026 RMK A01 T01151036  RH  035%=      5-min Rain = 0
KPT1 151830Z 36006G11KT 11/M04 A3026 RMK A01 T01141036  RH  035%=      5-min Rain = 0
KPT1 151835Z 34008G14KT 12/M03 A3025 RMK A01 T01171033  RH  035%=      5-min Rain = 0
KPT1 151840Z 35008G13KT 12/M04 A3025 RMK A01 T01201035  RH  034%=      5-min Rain = 0
KPT1 151845Z 36009G14KT 12/M04 A3025 RMK A01 T01171038  RH  034%=      5-min Rain = 0
KPT1 151850Z 00007KT 12/M04 A3024 RMK A01 T01171038  RH  034%=      5-min Rain = 0
KPT1 151855Z 02009G14KT 12/M04 A3024 RMK A01 T01211036  RH  034%=      5-min Rain = 0
KPT1 151900Z 01009G14KT 12/M04 A3024 RMK A01 T01201041  RH  033%=      5-min Rain = 0
KPT1 151905Z 35009KT 12/M04 A3023 RMK A01 T01191043  RH  032%=      5-min Rain = 0
KPT1 151910Z 00009KT 12/M04 A3023 RMK A01 T01191040  RH  033%=      5-min Rain = 0
KPT1 151915Z 02009KT 12/M04 A3023 RMK A01 T01201042  RH  032%=      5-min Rain = 0
KPT1 151920Z 01010KT 12/M04 A3022 RMK A01 T01221041  RH  032%=      5-min Rain = 0
KPT1 151925Z 36007G12KT 12/M04 A3022 RMK A01 T01241044  RH  031%=      5-min Rain = 0
KPT1 151930Z 35008KT 13/M05 A3022 RMK A01 T01251045  RH  031%=      5-min Rain = 0
KPT1 151935Z 01008KT 13/M04 A3022 RMK A01 T01261041  RH  031%=      5-min Rain = 0
KPT1 151940Z 00007KT 12/M04 A3021 RMK A01 T01231043  RH  032%=      5-min Rain = 0
KPT1 151945Z 00008G13KT 13/M04 A3021 RMK A01 T01251041  RH  032%=      5-min Rain = 0
KPT1 151950Z 00008G15KT 13/M04 A3021 RMK A01 T01251041  RH  032%=      5-min Rain = 0
KPT1 151955Z 01007KT 13/M05 A3021 RMK A01 T01271046  RH  030%=      5-min Rain = 0
KPT1 152000Z 01007KT 12/M05 A302 RMK A01 T01241052  RH  029%=      5-min Rain = 0
KPT1 152005Z 01009G14KT 13/M04 A302 RMK A01 T01281042  RH  031%=      5-min Rain = 0
KPT1 152010Z 35009KT 13/M04 A302 RMK A01 T01281041  RH  031%=      5-min Rain = 0
KPT1 152015Z 03006KT 13/M05 A302 RMK A01 T01301050  RH  029%=      5-min Rain = 0
KPT1 152020Z 01007KT 13/M04 A3019 RMK A01 T01261043  RH  031%=      5-min Rain = 0
KPT1 152025Z 01005KT 12/M04 A3019 RMK A01 T01221042  RH  032%=      5-min Rain = 0
KPT1 152030Z 33006KT 13/M04 A3019 RMK A01 T01271041  RH  031%=      5-min Rain = 0
KPT1 152035Z 36007G12KT 13/M04 A3019 RMK A01 T01311040  RH  031%=      5-min Rain = 0
KPT1 152040Z 35006KT 13/M04 A3018 RMK A01 T01271040  RH  031%=      5-min Rain = 0
KPT1 152045Z 36008KT 13/M04 A3018 RMK A01 T01291039  RH  031%=      5-min Rain = 0
KPT1 152050Z 02007KT 13/M04 A3018 RMK A01 T01301037  RH  031%=      5-min Rain = 0
KPT1 152055Z 35006G11KT 13/M04 A3018 RMK A01 T01321037  RH  031%=      5-min Rain = 0
KPT1 152100Z 34006G11KT 13/M03 A3018 RMK A01 T01311034  RH  032%=      5-min Rain = 0
KPT1 152105Z 34006KT 13/M03 A3018 RMK A01 T01321033  RH  032%=      5-min Rain = 0
KPT1 152110Z 33007G12KT 13/M03 A3018 RMK A01 T01311032  RH  033%=      5-min Rain = 0
KPT1 152115Z 31007G12KT 13/M03 A3018 RMK A01 T01311030  RH  033%=      5-min Rain = 0
KPT1 152120Z 31006KT 13/M03 A3017 RMK A01 T01321029  RH  033%=      5-min Rain = 0
KPT1 152125Z 32005KT 13/M03 A3017 RMK A01 T01341026  RH  033%=      5-min Rain = 0
KPT1 152130Z 34006KT 13/M03 A3017 RMK A01 T01341031  RH  032%=      5-min Rain = 0
KPT1 152135Z 31007KT 14/M03 A3017 RMK A01 T01351030  RH  032%=      5-min Rain = 0
KPT1 152140Z 30007KT 13/M03 A3017 RMK A01 T01341030  RH  032%=      5-min Rain = 0
KPT1 152145Z 29005KT 14/M03 A3017 RMK A01 T01351029  RH  032%=      5-min Rain = 0
KPT1 152150Z 34006KT 14/M03 A3017 RMK A01 T01391030  RH  031%=      5-min Rain = 0
KPT1 152155Z 34004KT 14/M04 A3017 RMK A01 T01351037  RH  030%=      5-min Rain = 0
KPT1 152200Z 29003KT 13/M04 A3017 RMK A01 T01341038  RH  030%=      5-min Rain = 0
KPT1 152205Z 34003KT 14/M04 A3016 RMK A01 T01371035  RH  030%=      5-min Rain = 0
KPT1 152210Z 30004KT 14/M04 A3016 RMK A01 T01351037  RH  031%=      5-min Rain = 0
KPT1 152215Z 30004KT 13/M03 A3016 RMK A01 T01331034  RH  032%=      5-min Rain = 0
KPT1 152220Z 33003KT 13/M03 A3016 RMK A01 T01341033  RH  032%=      5-min Rain = 0
KPT1 152225Z 29001KT 14/M03 A3016 RMK A01 T01381034  RH  030%=      5-min Rain = 0
KPT1 152230Z 34003KT 14/M03 A3015 RMK A01 T01381032  RH  031%=      5-min Rain = 0
KPT1 152235Z 01003KT 14/M03 A3015 RMK A01 T01371031  RH  031%=      5-min Rain = 0
KPT1 152240Z 35007KT 14/M03 A3015 RMK A01 T01371030  RH  032%=      5-min Rain = 0
KPT1 152245Z 33003KT 14/M03 A3015 RMK A01 T01401027  RH  032%=      5-min Rain = 0
KPT1 152250Z 30004KT 14/M03 A3015 RMK A01 T01371030  RH  032%=      5-min Rain = 0
KPT1 152255Z 31005KT 14/M03 A3015 RMK A01 T01371030  RH  032%=      5-min Rain = 0
KPT1 152300Z 30004KT 14/M03 A3015 RMK A01 T01371028  RH  032%=      5-min Rain = 0
KPT1 152305Z 27004KT 14/M03 A3015 RMK A01 T01371028  RH  032%=      5-min Rain = 0
KPT1 152310Z 27004KT 14/M03 A3015 RMK A01 T01361030  RH  032%=      5-min Rain = 0
KPT1 152315Z 28002KT 14/M03 A3015 RMK A01 T01351034  RH  031%=      5-min Rain = 0
KPT1 152320Z 34004KT 14/M03 A3015 RMK A01 T01351031  RH  032%=      5-min Rain = 0
KPT1 152325Z 02003KT 13/M03 A3015 RMK A01 T01321032  RH  032%=      5-min Rain = 0
KPT1 152330Z 02003KT 13/M03 A3015 RMK A01 T01311031  RH  033%=      5-min Rain = 0
KPT1 152335Z 36002KT 13/M03 A3015 RMK A01 T01321030  RH  033%=      5-min Rain = 0
KPT1 152340Z 04002KT 13/M03 A3015 RMK A01 T01331032  RH  032%=      5-min Rain = 0
KPT1 152345Z 06001KT 13/M03 A3014 RMK A01 T01311034  RH  032%=      5-min Rain = 0
KPT1 152350Z 05001KT 13/M03 A3014 RMK A01 T01301033  RH  032%=      5-min Rain = 0
KPT1 152355Z 03001KT 13/M03 A3014 RMK A01 T01311032  RH  032%=      5-min Rain = 0
KPT1 160000Z 02002KT 13/M03 A3014 RMK A01 T01281029  RH  034%=      5-min Rain = 0
KPT1 160005Z 02003KT 12/M03 A3014 RMK A01 T01241029  RH  035%=      5-min Rain = 0
KPT1 160010Z 04004KT 12/M03 A3014 RMK A01 T01201027  RH  036%=      5-min Rain = 0
KPT1 160015Z 06004KT 11/M02 A3013 RMK A01 T01141024  RH  038%=      5-min Rain = 0
KPT1 160020Z 07003KT 11/M02 A3014 RMK A01 T01141022  RH  039%=      5-min Rain = 0
KPT1 160025Z 10002KT 11/M02 A3014 RMK A01 T01121019  RH  041%=      5-min Rain = 0
KPT1 160030Z 13002KT 11/M02 A3014 RMK A01 T01081020  RH  041%=      5-min Rain = 0
KPT1 160035Z 12002KT 11/M02 A3014 RMK A01 T01091020  RH  041%=      5-min Rain = 0
KPT1 160040Z 11003KT 11/M03 A3014 RMK A01 T01101027  RH  039%=      5-min Rain = 0
KPT1 160045Z 11003KT 11/M03 A3013 RMK A01 T01101029  RH  038%=      5-min Rain = 0
KPT1 160050Z 11003KT 11/M03 A3013 RMK A01 T01091030  RH  038%=      5-min Rain = 0
KPT1 160055Z 14004KT 10/M02 A3013 RMK A01 T01031022  RH  042%=      5-min Rain = 0
KPT1 160100Z 13004KT 10/M03 A3013 RMK A01 T01021026  RH  041%=      5-min Rain = 0
KPT1 160105Z 13004KT 10/M03 A3013 RMK A01 T01011025  RH  042%=      5-min Rain = 0
KPT1 160110Z 14005KT 10/M02 A3013 RMK A01 T00971019  RH  045%=      5-min Rain = 0
KPT1 160115Z 14005KT 10/M01 A3013 RMK A01 T00951014  RH  047%=      5-min Rain = 0
KPT1 160120Z 15004KT 09/M01 A3013 RMK A01 T00921008  RH  050%=      5-min Rain = 0
KPT1 160125Z 15003KT 09/M00 A3013 RMK A01 T00921002  RH  052%=      5-min Rain = 0
KPT1 160130Z 15002KT 09/M00 A3013 RMK A01 T00911001  RH  053%=      5-min Rain = 0
KPT1 160135Z 16003KT 09/00 A3013 RMK A01 T00870001  RH  055%=      5-min Rain = 0
KPT1 160140Z 17003KT 09/00 A3013 RMK A01 T00870002  RH  056%=      5-min Rain = 0
KPT1 160145Z 15003KT 09/00 A3013 RMK A01 T00870003  RH  056%=      5-min Rain = 0
KPT1 160150Z 15004KT 09/00 A3013 RMK A01 T00870003  RH  056%=      5-min Rain = 0
KPT1 160155Z 17003KT 09/00 A3013 RMK A01 T00880002  RH  055%=      5-min Rain = 0
KPT1 160200Z 17003KT 09/00 A3013 RMK A01 T00870003  RH  056%=      5-min Rain = 0
KPT1 160205Z 17003KT 09/00 A3013 RMK A01 T00860003  RH  057%=      5-min Rain = 0
KPT1 160210Z 18003KT 08/00 A3013 RMK A01 T00840004  RH  058%=      5-min Rain = 0
KPT1 160215Z 20004KT 08/01 A3013 RMK A01 T00810006  RH  060%=      5-min Rain = 0
KPT1 160220Z 21005KT 08/01 A3014 RMK A01 T00790008  RH  062%=      5-min Rain = 0
KPT1 160225Z 22004KT 08/01 A3014 RMK A01 T00800007  RH  061%=      5-min Rain = 0
KPT1 160230Z 21003KT 08/01 A3014 RMK A01 T00810008  RH  061%=      5-min Rain = 0
KPT1 160235Z 22004KT 08/01 A3014 RMK A01 T00790010  RH  063%=      5-min Rain = 0
KPT1 160240Z 22004KT 08/01 A3014 RMK A01 T00760009  RH  063%=      5-min Rain = 0
KPT1 160245Z 22005KT 08/01 A3014 RMK A01 T00760007  RH  063%=      5-min Rain = 0
KPT1 160250Z 22005KT 07/01 A3014 RMK A01 T00730006  RH  063%=      5-min Rain = 0
KPT1 160255Z 21005KT 07/00 A3014 RMK A01 T00720004  RH  063%=      5-min Rain = 0
KPT1 160300Z 22005KT 07/00 A3014 RMK A01 T00720003  RH  062%=      5-min Rain = 0
KPT1 160305Z 22005KT 07/00 A3014 RMK A01 T00710002  RH  062%=      5-min Rain = 0
KPT1 160310Z 22006KT 07/00 A3014 RMK A01 T00690001  RH  062%=      5-min Rain = 0
KPT1 160315Z 21006KT 07/00 A3014 RMK A01 T00680000  RH  063%=      5-min Rain = 0
KPT1 160320Z 22005KT 07/M00 A3014 RMK A01 T00681001  RH  062%=      5-min Rain = 0
KPT1 160325Z 22005KT 07/M00 A3014 RMK A01 T00681002  RH  062%=      5-min Rain = 0
KPT1 160330Z 22005KT 07/M00 A3014 RMK A01 T00661003  RH  062%=      5-min Rain = 0
KPT1 160335Z 22006KT 06/M00 A3014 RMK A01 T00641003  RH  063%=      5-min Rain = 0
KPT1 160340Z 22005KT 06/M00 A3014 RMK A01 T00641003  RH  063%=      5-min Rain = 0
KPT1 160345Z 22006KT 06/M00 A3014 RMK A01 T00641004  RH  063%=      5-min Rain = 0
KPT1 160350Z 22006KT 06/M00 A3014 RMK A01 T00631002  RH  064%=      5-min Rain = 0
KPT1 160355Z 22007KT 06/M00 A3014 RMK A01 T00631002  RH  064%=      5-min Rain = 0
KPT1 160400Z 22007KT 06/M00 A3014 RMK A01 T00631002  RH  064%=      5-min Rain = 0
KPT1 160405Z 22007KT 06/M00 A3014 RMK A01 T00641003  RH  063%=      5-min Rain = 0
KPT1 160410Z 22007KT 06/M00 A3014 RMK A01 T00641003  RH  063%=      5-min Rain = 0
KPT1 160415Z 22006KT 06/M00 A3014 RMK A01 T00641004  RH  062%=      5-min Rain = 0
KPT1 160420Z 22005KT 06/M01 A3014 RMK A01 T00621005  RH  063%=      5-min Rain = 0
KPT1 160425Z 22005KT 06/M01 A3014 RMK A01 T00631005  RH  063%=      5-min Rain = 0
KPT1 160430Z 22005KT 06/M01 A3014 RMK A01 T00621007  RH  062%=      5-min Rain = 0
KPT1 160435Z 23005KT 06/M01 A3014 RMK A01 T00601005  RH  063%=      5-min Rain = 0
KPT1 160440Z 23006KT 06/M01 A3014 RMK A01 T00581005  RH  065%=      5-min Rain = 0
KPT1 160445Z 23005KT 06/M00 A3014 RMK A01 T00561004  RH  066%=      5-min Rain = 0
KPT1 160450Z 23005KT 05/M00 A3013 RMK A01 T00541003  RH  068%=      5-min Rain = 0
KPT1 160455Z 23005KT 05/M00 A3013 RMK A01 T00521002  RH  069%=      5-min Rain = 0
KPT1 160500Z 23006KT 05/M00 A3013 RMK A01 T00511001  RH  069%=      5-min Rain = 0
KPT1 160505Z 23005KT 05/M00 A3013 RMK A01 T00501001  RH  071%=      5-min Rain = 0
KPT1 160510Z 24005KT 05/M00 A3013 RMK A01 T00481001  RH  071%=      5-min Rain = 0
KPT1 160515Z 24006KT 05/M00 A3013 RMK A01 T00491001  RH  071%=      5-min Rain = 0
KPT1 160520Z 24006KT 05/M00 A3013 RMK A01 T00501002  RH  070%=      5-min Rain = 0
KPT1 160525Z 24006KT 05/M00 A3013 RMK A01 T00501003  RH  069%=      5-min Rain = 0
KPT1 160530Z 24006KT 05/M00 A3013 RMK A01 T00511003  RH  069%=      5-min Rain = 0
KPT1 160535Z 24006KT 05/M00 A3013 RMK A01 T00501003  RH  069%=      5-min Rain = 0
KPT1 160540Z 23005KT 05/M01 A3013 RMK A01 T00511005  RH  068%=      5-min Rain = 0
KPT1 160545Z 24005KT 05/M01 A3013 RMK A01 T00511006  RH  067%=      5-min Rain = 0
KPT1 160550Z 24005KT 05/M01 A3012 RMK A01 T00501005  RH  068%=      5-min Rain = 0
KPT1 160555Z 24005KT 05/M01 A3012 RMK A01 T00481006  RH  069%=      5-min Rain = 0

Page generated in 0.0619 seconds.